Time;durP1;ratioP1;P1;durP2;ratioP2;P2;SDS_P1;SDS_P2;PMS_P1;PMS_P2;Temp;Humidity;BMP_temperature;BMP_pressure;BME280_temperature;BME280_humidity;BME280_pressure;Samples;Min_cycle;Max_cycle;Signal;HPM_P1;HPM_P2
2022/05/02 00:00:17;;;;;;;8.23;6.08;;;;;;;8.64;65.99;101066.09;1858848;77;21426;-76
2022/05/02 00:02:44;;;;;;;9.23;6.50;;;;;;;8.67;66.03;101060.31;1821604;77;21011;-77
2022/05/02 00:05:11;;;;;;;7.83;5.70;;;;;;;8.72;66.17;101064.13;1813175;79;20928;-77
2022/05/02 00:07:40;;;;;;;9.50;5.85;;;;;;;8.75;66.23;101061.00;1812405;79;21109;-77
2022/05/02 00:10:11;;;;;;;8.08;5.80;;;;;;;8.73;66.40;101064.44;1846375;77;21553;-77
2022/05/02 00:12:40;;;;;;;8.43;5.97;;;;;;;8.62;66.71;101063.38;1822293;78;21073;-78
2022/05/02 00:15:10;;;;;;;7.47;5.17;;;;;;;8.53;67.09;101060.27;1853304;77;21494;-78
2022/05/02 00:17:57;;;;;;;6.62;5.08;;;;;;;8.47;67.45;101057.19;1851074;76;21074;-72
2022/05/02 00:20:31;;;;;;;7.97;5.28;;;;;;;8.40;67.77;101062.62;1834418;76;20978;-75
2022/05/02 00:23:03;;;;;;;7.30;4.92;;;;;;;8.35;68.05;101058.45;1792833;80;21062;-77
2022/05/02 00:25:31;;;;;;;6.92;5.00;;;;;;;8.34;68.32;101061.36;1800639;78;21501;-78
2022/05/02 00:27:59;;;;;;;6.78;5.03;;;;;;;8.33;68.51;101061.89;1792723;80;21042;-78
2022/05/02 00:30:27;;;;;;;8.40;4.80;;;;;;;8.37;68.63;101059.58;1837834;77;20994;-78
2022/05/02 00:32:55;;;;;;;8.70;5.08;;;;;;;8.37;68.75;101060.38;1849916;77;21069;-78
2022/05/02 00:35:23;;;;;;;7.95;5.30;;;;;;;8.37;68.83;101060.38;1830635;77;21074;-76
2022/05/02 00:37:53;;;;;;;9.43;5.60;;;;;;;8.40;68.89;101063.95;1851297;77;20984;-77
2022/05/02 00:40:20;;;;;;;8.45;5.67;;;;;;;8.41;68.93;101060.23;1821434;78;21535;-78
2022/05/02 00:42:47;;;;;;;8.60;5.95;;;;;;;8.48;68.90;101060.66;1796854;77;21122;-78
2022/05/02 00:45:15;;;;;;;7.60;5.45;;;;;;;8.53;68.82;101053.61;1811053;79;21129;-78
2022/05/02 00:48:02;;;;;;;7.83;5.37;;;;;;;8.58;68.75;101055.03;1825113;76;20936;-77
2022/05/02 00:50:37;;;;;;;8.00;5.58;;;;;;;8.65;68.66;101058.42;1831591;78;21157;-77
2022/05/02 00:53:06;;;;;;;9.40;5.92;;;;;;;8.73;68.51;101055.92;1830828;78;21042;-79
2022/05/02 00:55:33;;;;;;;8.15;5.70;;;;;;;8.78;68.33;101054.69;1810032;78;20935;-79
2022/05/02 00:58:02;;;;;;;8.73;6.05;;;;;;;8.80;68.17;101051.80;1833103;78;20943;-78
2022/05/02 01:00:35;;;;;;;9.28;6.22;;;;;;;8.81;68.01;101049.42;1816229;76;21021;-80
2022/05/02 01:03:03;;;;;;;7.42;5.17;;;;;;;8.83;67.86;101052.67;1825353;77;21155;-78
2022/05/02 01:08:31;;;;;;;8.38;5.80;;;;;;;8.85;67.62;101047.41;1797226;77;20991;-78
2022/05/02 01:10:59;;;;;;;;;;;;;;;8.93;67.46;101048.37;1825085;78;20998;-77
2022/05/02 01:13:42;;;;;;;8.88;5.80;;;;;;;8.92;67.45;101040.63;1811705;78;20150;-78
2022/05/02 01:16:24;;;;;;;9.28;5.80;;;;;;;8.93;67.34;101046.23;1799561;79;21302;-78
2022/05/02 01:18:54;;;;;;;9.38;5.90;;;;;;;8.95;67.28;101044.66;1856597;76;21054;-78
2022/05/02 01:21:26;;;;;;;8.38;5.60;;;;;;;8.95;67.18;101043.31;1813585;76;20987;-76
2022/05/02 01:23:55;;;;;;;10.30;6.03;;;;;;;8.93;67.06;101040.37;1803817;78;21020;-77
2022/05/02 01:26:22;;;;;;;8.33;5.97;;;;;;;8.90;66.99;101040.84;1831972;78;21038;-78
2022/05/02 01:28:55;;;;;;;8.53;6.17;;;;;;;8.88;66.98;101044.28;1831400;78;21131;-78
2022/05/02 01:31:22;;;;;;;8.50;5.42;;;;;;;8.86;66.96;101040.22;1810658;78;20999;-76
2022/05/02 01:33:49;;;;;;;8.73;5.80;;;;;;;8.85;66.92;101043.91;1825372;76;21031;-77
2022/05/02 01:36:21;;;;;;;8.25;6.00;;;;;;;8.82;66.88;101039.08;1832107;78;20963;-77
2022/05/02 01:38:47;;;;;;;8.88;6.17;;;;;;;8.80;66.85;101036.63;1831304;78;20955;-78
2022/05/02 01:41:14;;;;;;;8.00;5.70;;;;;;;8.77;66.91;101039.76;1819008;79;21156;-78
2022/05/02 01:43:43;;;;;;;8.63;5.58;;;;;;;8.81;66.80;101038.77;1820394;79;21063;-76
2022/05/02 01:46:14;;;;;;;9.28;5.95;;;;;;;8.83;66.74;101035.36;1822016;79;20992;-75
2022/05/02 01:48:43;;;;;;;8.38;5.55;;;;;;;8.71;67.02;101036.69;1823009;78;21015;-78
2022/05/02 01:51:13;;;;;;;10.10;6.08;;;;;;;8.67;67.12;101036.87;1821735;78;20962;-76
2022/05/02 01:53:42;;;;;;;10.08;5.75;;;;;;;8.63;67.13;101031.73;1800783;76;21130;-78
2022/05/02 01:56:09;;;;;;;9.43;6.08;;;;;;;8.61;67.14;101037.27;1799001;79;21064;-77
2022/05/02 01:58:37;;;;;;;7.95;5.90;;;;;;;8.58;67.09;101038.25;1801220;78;20987;-77
2022/05/02 02:01:04;;;;;;;9.05;6.08;;;;;;;8.55;67.09;101038.19;1803700;78;20976;-77
2022/05/02 02:03:31;;;;;;;8.55;6.17;;;;;;;8.52;67.26;101041.31;1799668;79;20990;-79
2022/05/02 02:05:58;;;;;;;10.08;5.90;;;;;;;8.50;67.53;101043.94;1799374;79;21827;-78
2022/05/02 02:08:28;;;;;;;8.68;6.10;;;;;;;8.48;67.79;101041.48;1800091;78;21030;-78
2022/05/02 02:11:00;;;;;;;9.05;5.75;;;;;;;8.49;67.86;101038.30;1829205;78;20995;-78
2022/05/02 02:13:27;;;;;;;9.18;6.10;;;;;;;8.48;67.85;101032.17;1831907;78;25018;-79
2022/05/02 02:15:54;;;;;;;8.70;5.80;;;;;;;8.46;67.72;101036.94;1832259;78;21042;-77
2022/05/02 02:18:21;;;;;;;8.00;5.75;;;;;;;8.41;67.67;101028.30;1831961;78;21117;-78
2022/05/02 02:20:50;;;;;;;8.30;5.72;;;;;;;8.40;67.65;101033.86;1814611;78;21274;-76
2022/05/02 02:23:17;;;;;;;10.53;6.55;;;;;;;8.39;67.58;101034.88;1828599;78;21058;-77
2022/05/02 02:25:44;;;;;;;8.80;6.37;;;;;;;8.36;67.51;101024.70;1815109;78;20973;-77
2022/05/02 02:28:14;;;;;;;9.35;5.80;;;;;;;8.32;67.46;101023.51;1802950;78;21060;-78
2022/05/02 02:30:42;;;;;;;9.60;6.05;;;;;;;8.29;67.38;101034.13;1832040;78;21875;-77
2022/05/02 02:33:09;;;;;;;9.23;6.40;;;;;;;8.26;67.36;101027.92;1832082;78;20979;-78
2022/05/02 02:35:36;;;;;;;9.35;6.30;;;;;;;8.20;67.35;101026.98;1832483;78;20947;-78
2022/05/02 02:38:03;;;;;;;9.48;6.45;;;;;;;8.18;67.37;101029.58;1824292;78;21596;-78
2022/05/02 02:40:32;;;;;;;9.43;6.55;;;;;;;8.13;67.47;101031.60;1803120;76;21000;-78
2022/05/02 02:42:59;;;;;;;10.23;6.75;;;;;;;8.14;67.60;101029.75;1841211;75;21246;-76
2022/05/02 02:45:26;;;;;;;9.83;7.22;;;;;;;8.16;67.60;101027.16;1856958;77;20960;-77
2022/05/02 02:48:00;;;;;;;8.93;5.95;;;;;;;8.17;67.55;101027.44;1789545;78;20972;-77
2022/05/02 02:50:29;;;;;;;9.70;6.77;;;;;;;8.17;67.49;101030.09;1821671;78;20976;-77
2022/05/02 02:52:56;;;;;;;8.80;6.20;;;;;;;8.17;67.46;101031.42;1821026;78;21049;-78
2022/05/02 02:55:26;;;;;;;9.73;6.20;;;;;;;8.17;67.39;101031.42;1819857;78;21450;-79
2022/05/02 02:57:53;;;;;;;9.10;6.33;;;;;;;8.19;67.37;101033.84;1818816;78;21502;-79
2022/05/02 03:00:21;;;;;;;8.03;5.90;;;;;;;8.19;67.28;101035.17;1820503;77;21038;-76
2022/05/02 03:02:50;;;;;;;8.25;5.97;;;;;;;8.16;67.22;101029.81;1822024;78;21040;-78
2022/05/02 03:08:02;;;;;;;8.10;5.83;;;;;;;8.16;67.15;101037.80;1828429;78;21516;-77
2022/05/02 03:10:30;;;;;;;8.95;6.00;;;;;;;8.17;67.23;101038.61;1834820;78;20999;-76
2022/05/02 03:12:57;;;;;;;8.95;5.62;;;;;;;8.21;67.26;101041.09;1834652;78;21006;-78
2022/05/02 03:15:24;;;;;;;7.90;5.50;;;;;;;8.26;67.24;101040.39;1832205;78;20971;-78
2022/05/02 03:17:51;;;;;;;8.15;5.50;;;;;;;8.31;67.24;101040.53;1817549;78;21071;-75
2022/05/02 03:20:18;;;;;;;8.88;5.78;;;;;;;8.36;67.31;101042.80;1805915;78;21077;-76
2022/05/02 03:22:45;;;;;;;9.90;6.05;;;;;;;8.40;67.38;101038.66;1826876;78;20994;-78
2022/05/02 03:25:12;;;;;;;8.23;5.80;;;;;;;8.45;67.40;101044.09;1831918;78;21474;-77
2022/05/02 03:27:40;;;;;;;9.00;5.50;;;;;;;8.52;67.40;101045.30;1831792;78;21066;-77
2022/05/02 03:30:08;;;;;;;9.38;5.42;;;;;;;8.57;67.40;101041.97;1832001;78;21046;-78
2022/05/02 03:32:35;;;;;;;9.40;5.72;;;;;;;8.63;67.37;101045.04;1830353;78;21226;-78
2022/05/02 03:35:03;;;;;;;8.85;5.45;;;;;;;8.68;67.31;101044.61;1799040;79;20932;-78
2022/05/02 03:37:32;;;;;;;6.80;5.08;;;;;;;8.75;67.31;101050.34;1803832;78;21042;-78
2022/05/02 03:40:01;;;;;;;7.35;5.22;;;;;;;8.77;67.36;101053.59;1799452;78;21081;-78
2022/05/02 03:42:28;;;;;;;8.43;5.92;;;;;;;8.79;67.38;101052.86;1799415;79;20943;-78
2022/05/02 03:44:55;;;;;;;6.50;5.15;;;;;;;8.83;67.35;101050.81;1805036;78;21086;-78
2022/05/02 03:47:22;;;;;;;8.03;5.62;;;;;;;8.89;67.35;101049.08;1831759;78;21026;-78
2022/05/02 03:49:49;;;;;;;7.80;4.97;;;;;;;8.89;67.44;101059.20;1826415;78;21015;-77
2022/05/02 03:52:18;;;;;;;7.87;5.28;;;;;;;8.92;67.54;101054.75;1799791;79;21035;-78
2022/05/02 03:54:45;;;;;;;7.37;5.20;;;;;;;8.93;67.65;101056.89;1803691;78;21002;-75
2022/05/02 03:57:15;;;;;;;7.15;5.28;;;;;;;8.98;67.79;101054.31;1837367;77;21092;-76
2022/05/02 03:59:42;;;;;;;7.40;5.20;;;;;;;9.08;67.87;101048.39;1818941;79;20944;-79
2022/05/02 04:02:11;;;;;;;9.25;5.30;;;;;;;9.19;67.93;101047.58;1818865;79;21000;-78
2022/05/02 04:04:38;;;;;;;7.90;5.22;;;;;;;9.34;67.86;101049.72;1830827;78;20976;-79
2022/05/02 04:07:07;;;;;;;9.10;5.58;;;;;;;9.50;67.70;101050.31;1802736;78;20979;-79
2022/05/02 04:09:34;;;;;;;6.15;4.58;;;;;;;9.67;67.47;101053.55;1799160;79;21573;-77
2022/05/02 04:12:01;;;;;;;7.55;5.20;;;;;;;9.85;67.21;101054.70;1799149;79;20975;-76
2022/05/02 04:14:28;;;;;;;10.03;5.40;;;;;;;10.01;66.82;101049.11;1800034;78;21008;-77
2022/05/02 04:16:55;;;;;;;7.65;5.12;;;;;;;10.16;66.38;101053.35;1799317;78;21051;-77
2022/05/02 04:19:22;;;;;;;7.05;5.00;;;;;;;10.28;65.89;101051.45;1799078;79;21015;-76
2022/05/02 04:21:50;;;;;;;7.47;5.30;;;;;;;10.39;65.22;101054.28;1831189;78;21204;-76
2022/05/02 04:24:17;;;;;;;7.95;5.05;;;;;;;10.45;64.67;101057.32;1824428;76;20928;-76
2022/05/02 04:26:45;;;;;;;7.55;5.12;;;;;;;10.48;64.07;101058.98;1799337;78;21190;-76
2022/05/02 04:29:12;;;;;;;7.05;4.60;;;;;;;10.54;63.47;101060.67;1799137;79;21100;-77
2022/05/02 04:31:39;;;;;;;6.60;4.58;;;;;;;10.59;62.92;101061.80;1828535;76;21038;-77
2022/05/02 04:34:07;;;;;;;7.95;5.20;;;;;;;10.61;62.44;101054.36;1831784;76;21136;-76
2022/05/02 04:36:35;;;;;;;8.55;4.80;;;;;;;10.61;62.12;101053.02;1831544;78;20925;-78
2022/05/02 04:39:05;;;;;;;7.12;5.00;;;;;;;10.65;61.87;101052.28;1831767;78;20931;-76
2022/05/02 04:41:33;;;;;;;8.05;5.22;;;;;;;10.74;61.74;101058.02;1812708;76;21022;-76
2022/05/02 04:43:59;;;;;;;7.17;4.40;;;;;;;10.85;61.68;101053.63;1813355;78;20986;-75
2022/05/02 04:46:27;;;;;;;6.65;4.87;;;;;;;10.96;61.62;101053.53;1813806;76;21082;-74
2022/05/02 04:48:54;;;;;;;8.03;4.72;;;;;;;11.11;61.47;101050.77;1799881;79;21196;-77
2022/05/02 04:51:22;;;;;;;8.08;4.95;;;;;;;11.25;61.24;101048.82;1824665;78;21450;-78
2022/05/02 04:53:49;;;;;;;7.60;4.92;;;;;;;11.41;61.02;101045.77;1806239;78;21138;-76
2022/05/02 04:56:17;;;;;;;6.28;4.20;;;;;;;11.59;60.86;101049.20;1799454;79;21062;-77
2022/05/02 04:58:44;;;;;;;8.13;5.35;;;;;;;11.74;60.61;101045.32;1814342;78;21087;-76
2022/05/02 05:01:11;;;;;;;7.55;4.58;;;;;;;11.87;60.15;101042.27;1822538;78;21066;-78
2022/05/02 05:03:39;;;;;;;7.15;5.03;;;;;;;12.01;58.81;101037.83;1832315;76;21431;-77
2022/05/02 05:06:06;;;;;;;9.60;5.42;;;;;;;12.13;57.70;101037.95;1834509;76;21129;-78
2022/05/02 05:08:41;;;;;;;8.95;4.83;;;;;;;12.23;57.10;101033.74;1831262;78;20923;-77
2022/05/02 05:11:38;;;;;;;6.90;4.47;;;;;;;12.30;56.59;101033.79;1833081;78;22331;-76
2022/05/02 05:17:35;;;;;;;5.58;3.40;;;;;;;12.52;55.14;101036.91;1786498;80;21022;-76
2022/05/02 05:20:13;;;;;;;6.87;4.05;;;;;;;12.64;54.14;101033.51;1776717;80;21039;-75
2022/05/02 05:23:22;;;;;;;6.37;4.10;;;;;;;12.75;53.21;101035.17;1790377;80;20913;-76
2022/05/02 05:26:39;;;;;;;6.17;3.90;;;;;;;12.86;52.84;101036.83;1782772;78;21260;-76
2022/05/02 05:29:14;;;;;;;6.12;3.90;;;;;;;13.05;52.30;101035.05;1796227;79;20920;-77
2022/05/02 05:31:59;;;;;;;5.12;3.85;;;;;;;13.20;51.84;101037.80;1825456;78;21034;-77
2022/05/02 05:34:51;;;;;;;5.83;3.90;;;;;;;13.30;51.50;101034.39;1800323;78;20991;-77
2022/05/02 05:37:41;;;;;;;5.62;3.40;;;;;;;13.42;50.85;101032.80;1799562;79;21002;-75
2022/05/02 05:40:27;;;;;;;5.17;3.47;;;;;;;13.56;50.17;101031.24;1811853;78;21087;-78
2022/05/02 05:43:18;;;;;;;5.25;3.47;;;;;;;13.70;49.25;101034.22;1831999;76;20947;-77
2022/05/02 05:46:16;;;;;;;6.75;3.40;;;;;;;13.85;48.96;101038.25;1820812;76;21038;-77
2022/05/02 05:49:18;;;;;;;6.10;3.80;;;;;;;14.01;48.03;101031.02;1813294;78;21064;-76
2022/05/02 05:52:12;;;;;;;5.83;3.43;;;;;;;14.17;47.34;101024.57;1815898;76;21195;-77
2022/05/02 05:55:06;;;;;;;5.50;3.50;;;;;;;14.33;46.66;101029.95;1809998;78;21239;-78
2022/05/02 05:57:54;;;;;;;5.00;2.65;;;;;;;14.49;46.28;101028.85;1798798;79;28578;-78
2022/05/02 06:00:24;;;;;;;5.27;3.17;;;;;;;14.65;45.28;101025.63;1806820;78;21010;-76
2022/05/02 06:03:20;;;;;;;5.00;3.50;;;;;;;14.78;45.39;101024.52;1834548;77;21223;-77
2022/05/02 06:05:59;;;;;;;4.97;3.23;;;;;;;14.95;45.19;101024.73;1811921;78;21319;-76
2022/05/02 06:08:50;;;;;;;4.47;2.90;;;;;;;15.13;43.89;101025.45;1832166;77;21152;-76
2022/05/02 06:11:21;;;;;;;6.00;3.13;;;;;;;15.27;43.53;101026.20;1798036;78;21302;-75
2022/05/02 06:13:49;;;;;;;5.20;3.30;;;;;;;15.42;42.80;101026.13;1799140;78;21228;-75
2022/05/02 06:19:10;;;;;;;6.03;3.07;;;;;;;15.72;42.23;101021.13;1811029;78;21747;-74
2022/05/02 06:21:44;;;;;;;4.90;2.70;;;;;;;15.87;42.35;101022.38;1802125;76;21200;-76
2022/05/02 06:24:13;;;;;;;5.97;3.10;;;;;;;16.08;41.76;101027.05;1813736;79;21116;-74
2022/05/02 06:26:42;;;;;;;5.20;2.80;;;;;;;16.25;40.79;101023.14;1811133;78;21254;-74
2022/05/02 06:29:10;;;;;;;4.83;2.70;;;;;;;16.39;40.56;101026.25;1802417;79;21143;-76
2022/05/02 06:31:40;;;;;;;4.43;2.77;;;;;;;16.56;40.04;101016.37;1832465;76;21287;-76
2022/05/02 06:34:07;;;;;;;4.90;2.63;;;;;;;16.72;39.39;101020.27;1816899;78;21212;-76
2022/05/02 06:37:09;;;;;;;3.90;2.43;;;;;;;16.89;39.24;101013.89;1833243;78;21212;-76
2022/05/02 06:40:06;;;;;;;5.17;2.37;;;;;;;17.20;37.94;101008.10;1802261;78;21314;-75
2022/05/02 06:42:46;;;;;;;4.63;2.30;;;;;;;17.38;37.36;101005.18;1805329;76;21533;-76
2022/05/02 06:45:39;;;;;;;4.08;2.35;;;;;;;17.38;37.36;101005.18;1802848;79;21554;-77
2022/05/02 06:48:35;;;;;;;4.30;2.40;;;;;;;17.79;36.77;100999.98;1803017;79;21104;-75
2022/05/02 06:51:09;;;;;;;3.67;2.33;;;;;;;17.79;36.77;100999.98;1809253;78;21698;-77
2022/05/02 06:54:13;;;;;;;4.27;2.20;;;;;;;18.04;35.97;101000.94;1820206;78;21658;-76
2022/05/02 06:57:00;;;;;;;5.77;2.20;;;;;;;18.19;34.58;100997.70;1824744;78;21614;-75
2022/05/02 07:00:06;;;;;;;4.13;2.20;;;;;;;18.35;34.15;100992.28;1820324;78;21608;-76
2022/05/02 07:02:55;;;;;;;4.27;2.30;;;;;;;18.54;32.91;100991.41;1835327;77;21595;-77
2022/05/02 07:05:47;;;;;;;3.33;2.10;;;;;;;18.54;32.91;100991.41;1818560;78;20986;-76
2022/05/02 07:08:28;;;;;;;4.37;2.00;;;;;;;18.62;33.13;100985.28;1802628;78;21015;-77
2022/05/02 07:11:05;;;;;;;3.90;2.00;;;;;;;18.72;32.95;100986.47;1842092;77;21000;-77
2022/05/02 07:13:56;;;;;;;3.33;1.83;;;;;;;18.83;32.25;100986.53;1851832;77;21238;-76
2022/05/02 07:16:25;;;;;;;2.98;1.60;;;;;;;18.83;32.25;100986.53;1800299;77;21273;-77
2022/05/02 07:19:48;;;;;;;3.67;1.80;;;;;;;18.90;32.11;100984.77;1821386;77;20981;-76
2022/05/02 07:22:12;;;;;;;3.03;1.90;;;;;;;18.96;31.71;100980.30;1786046;80;21053;-76
2022/05/02 07:25:14;;;;;;;4.73;1.93;;;;;;;19.02;30.68;100981.53;1793133;80;21122;-76
2022/05/02 07:28:17;;;;;;;3.30;2.12;;;;;;;19.01;30.48;100975.31;1825149;78;20998;-75
2022/05/02 07:30:46;;;;;;;3.87;1.90;;;;;;;19.08;30.40;100984.38;1835530;77;21731;-78
2022/05/02 07:33:13;;;;;;;3.60;1.90;;;;;;;19.11;30.02;100983.22;1805142;78;21057;-76
2022/05/02 07:35:41;;;;;;;3.50;1.77;;;;;;;19.12;30.47;100982.70;1806242;78;20979;-76
2022/05/02 07:38:08;;;;;;;4.80;1.90;;;;;;;19.14;29.83;100979.11;1811381;77;21006;-77
2022/05/02 07:40:36;;;;;;;3.27;1.80;;;;;;;19.16;30.30;100985.03;1789627;77;21550;-76
2022/05/02 07:43:03;;;;;;;3.37;1.83;;;;;;;19.23;30.80;100982.70;1830423;77;21102;-71
2022/05/02 07:45:31;;;;;;;3.57;1.60;;;;;;;19.39;31.03;100983.17;1895203;75;21038;-74
2022/05/02 07:48:01;;;;;;;3.63;1.60;;;;;;;19.55;29.71;100978.20;1852204;77;21117;-76
2022/05/02 07:50:27;;;;;;;2.40;1.30;;;;;;;19.63;29.57;100978.28;1825613;78;21129;-77
2022/05/02 07:52:55;;;;;;;4.33;1.60;;;;;;;19.76;28.91;100975.27;1858166;77;21002;-77
2022/05/02 07:55:22;;;;;;;2.93;1.60;;;;;;;19.85;28.98;100972.63;1858515;77;21081;-77
2022/05/02 07:57:51;;;;;;;3.40;1.67;;;;;;;19.97;28.61;100972.84;1826898;77;20968;-76
2022/05/02 08:00:19;;;;;;;2.97;1.73;;;;;;;20.09;28.67;100966.87;1844084;77;20932;-76
2022/05/02 08:02:47;;;;;;;4.67;1.80;;;;;;;20.23;28.62;100967.56;1821623;78;20991;-77
2022/05/02 08:05:18;;;;;;;4.80;2.10;;;;;;;20.37;28.88;100960.15;1833853;77;21548;-76
2022/05/02 08:07:46;;;;;;;3.33;1.80;;;;;;;20.47;28.46;100959.63;1797276;79;21216;-77
2022/05/02 08:10:47;;;;;;;3.77;2.03;;;;;;;20.59;27.67;100957.92;1797227;79;20986;-76
2022/05/02 08:13:58;;;;;;;4.27;2.20;;;;;;;20.71;27.91;100959.25;1796995;79;21130;-77
2022/05/02 08:16:26;;;;;;;5.03;2.10;;;;;;;20.80;27.89;100958.73;1767687;81;21485;-76
2022/05/02 08:19:26;;;;;;;3.13;1.63;;;;;;;20.80;27.66;100956.02;1766009;79;21070;-76
2022/05/02 08:27:15;;;;;;;3.60;2.00;;;;;;;20.89;27.66;100957.37;1799639;78;21103;-78
2022/05/02 08:27:52;;;;;;;3.10;1.83;;;;;;;20.98;27.90;100951.40;1799003;79;20939;-76
2022/05/02 08:30:30;;;;;;;4.10;1.90;;;;;;;21.06;26.40;100953.34;1704608;78;21045;-77
2022/05/02 08:33:02;;;;;;;2.87;1.70;;;;;;;21.15;26.75;100944.63;1842026;76;21030;-77
2022/05/02 08:35:53;;;;;;;2.87;1.65;;;;;;;21.20;26.46;100945.84;1825095;78;21194;-76
2022/05/02 08:38:36;;;;;;;3.03;1.70;;;;;;;21.31;26.65;100940.31;1856643;75;20987;-78
2022/05/02 08:41:37;;;;;;;6.80;1.70;;;;;;;21.42;26.72;100944.92;1852160;75;21034;-78
2022/05/02 08:44:36;;;;;;;2.47;1.53;;;;;;;21.40;25.64;100946.35;1857790;76;20964;-77
2022/05/02 08:47:41;;;;;;;2.92;1.42;;;;;;;21.43;24.97;100933.48;1858007;75;21081;-76
2022/05/02 08:50:32;;;;;;;2.70;1.60;;;;;;;21.40;25.92;100932.77;1854570;77;21092;-78
2022/05/02 08:53:12;;;;;;;4.83;2.20;;;;;;;21.55;26.01;100930.89;1790884;78;21540;-79
2022/05/02 08:56:01;;;;;;;3.67;2.07;;;;;;;21.64;25.65;100920.81;1818234;78;21213;-77
2022/05/02 08:59:00;;;;;;;2.77;1.70;;;;;;;21.64;25.10;100922.17;1818435;76;21514;-79
2022/05/02 09:01:58;;;;;;;3.30;1.70;;;;;;;21.71;24.50;100918.95;1818989;79;20956;-79
2022/05/02 09:05:09;;;;;;;3.20;1.73;;;;;;;21.71;24.50;100918.39;1813555;76;21195;-78
2022/05/02 09:08:17;;;;;;;4.73;2.00;;;;;;;21.77;25.46;100909.52;1849872;76;21416;-78
2022/05/02 09:11:33;;;;;;;3.33;1.80;;;;;;;21.88;25.57;100906.70;1851160;76;21040;-74
2022/05/02 09:14:23;;;;;;;4.63;2.00;;;;;;;22.02;24.67;100906.49;1827039;77;21015;-75
2022/05/02 09:17:21;;;;;;;3.20;1.80;;;;;;;21.93;23.76;100898.35;1799232;79;26069;-76
2022/05/02 09:20:18;;;;;;;4.70;1.90;;;;;;;21.80;23.72;100897.99;1798943;79;21099;-76
2022/05/02 09:23:30;;;;;;;3.67;1.67;;;;;;;21.73;24.27;100899.84;1778242;79;21149;-77
2022/05/02 09:26:42;;;;;;;3.67;1.73;;;;;;;21.88;24.65;100888.20;1799084;79;20999;-77
2022/05/02 09:29:51;;;;;;;3.87;1.87;;;;;;;22.06;24.88;100891.67;1798920;79;21014;-78
2022/05/02 09:32:22;;;;;;;3.40;1.60;;;;;;;22.23;24.79;100889.70;1810053;78;20931;-77
2022/05/02 09:34:56;;;;;;;4.25;1.55;;;;;;;22.39;23.91;100876.33;1785986;78;21928;-78
2022/05/02 09:37:40;;;;;;;3.47;1.53;;;;;;;22.47;23.89;100877.40;1800031;78;20982;-78
2022/05/02 09:40:15;;;;;;;2.80;1.67;;;;;;;22.56;24.36;100875.42;1823893;77;21012;-77
2022/05/02 09:43:17;;;;;;;4.00;1.60;;;;;;;22.59;24.62;100873.98;1824093;78;20984;-78
2022/05/02 09:49:36;;;;;;;3.63;1.70;;;;;;;22.62;23.27;100867.30;1804878;79;21747;-78
2022/05/02 09:52:25;;;;;;;4.30;1.90;;;;;;;22.66;23.06;100860.63;1784628;79;21046;-77
2022/05/02 09:58:34;;;;;;;5.27;1.80;;;;;;;22.74;24.05;100851.62;1804614;79;21053;-78
2022/05/02 10:01:26;;;;;;;4.27;2.03;;;;;;;22.91;23.96;100856.12;1805388;79;20974;-79
2022/05/02 10:04:26;;;;;;;3.90;2.03;;;;;;;23.00;23.78;100854.17;1805293;78;21120;-78
2022/05/02 10:06:57;;;;;;;5.17;1.90;;;;;;;23.09;23.80;100849.42;1804509;79;21474;-78
2022/05/02 10:09:55;;;;;;;4.30;1.70;;;;;;;23.23;23.58;100848.33;1804513;79;20991;-78
2022/05/02 10:12:49;;;;;;;5.67;1.90;;;;;;;23.34;23.98;100844.07;1809938;78;21006;-78
2022/05/02 10:15:49;;;;;;;5.13;1.77;;;;;;;23.38;23.51;100836.81;1813181;79;20935;-77
2022/05/02 10:18:56;;;;;;;3.80;1.80;;;;;;;23.40;23.07;100840.00;1812723;78;21116;-80
2022/05/02 10:21:35;;;;;;;4.90;2.00;;;;;;;23.44;23.01;100838.77;1808561;78;21062;-78
2022/05/02 10:24:32;;;;;;;2.40;1.50;;;;;;;23.47;22.47;100834.80;1800200;78;21517;-77
2022/05/02 10:27:23;;;;;;;2.73;1.63;;;;;;;23.47;22.82;100832.64;1799591;79;21467;-79
2022/05/02 10:30:14;;;;;;;3.93;1.77;;;;;;;23.52;23.02;100834.56;1799428;79;21015;-78
2022/05/02 10:33:00;;;;;;;3.43;1.70;;;;;;;23.64;22.33;100826.41;1811140;78;21669;-79
2022/05/02 10:35:29;;;;;;;3.13;1.70;;;;;;;23.71;22.85;100818.27;1822749;78;20970;-78
2022/05/02 10:38:04;;;;;;;3.77;1.60;;;;;;;23.69;22.42;100824.63;1842526;77;21497;-78
2022/05/02 10:40:40;;;;;;;3.43;1.80;;;;;;;23.73;22.67;100818.74;1824817;78;21498;-75
2022/05/02 10:43:09;;;;;;;2.53;1.37;;;;;;;23.77;22.51;100816.92;1790433;80;20924;-77
2022/05/02 10:45:40;;;;;;;3.47;1.50;;;;;;;23.71;22.15;100814.18;1823593;78;21200;-80
2022/05/02 10:48:19;;;;;;;3.33;1.70;;;;;;;23.58;22.74;100813.34;1790308;80;20923;-78
2022/05/02 10:51:13;;;;;;;5.13;1.90;;;;;;;23.54;23.02;100810.49;1824707;78;21455;-78
2022/05/02 10:54:09;;;;;;;5.03;2.03;;;;;;;23.56;22.55;100804.14;1791429;80;21069;-77
2022/05/02 10:56:49;;;;;;;4.23;2.00;;;;;;;23.65;22.57;100801.30;1826201;77;21091;-78
2022/05/02 10:59:16;;;;;;;3.77;1.80;;;;;;;23.84;22.89;100796.12;1824862;78;21189;-79
2022/05/02 11:02:24;;;;;;;5.30;2.20;;;;;;;24.01;22.25;100790.20;1726136;80;21035;-76
2022/05/02 11:05:09;;;;;;;3.63;1.73;;;;;;;24.06;22.23;100792.14;1835029;75;21463;-79
2022/05/02 11:08:10;;;;;;;3.20;1.77;;;;;;;23.98;22.77;100791.67;1840632;78;20964;-78
2022/05/02 11:11:00;;;;;;;4.63;1.63;;;;;;;24.07;22.47;100788.84;1840856;77;20972;-77
2022/05/02 11:13:53;;;;;;;2.83;1.53;;;;;;;24.22;21.98;100781.87;1799320;76;21193;-78
2022/05/02 11:16:43;;;;;;;3.13;1.70;;;;;;;24.22;21.62;100785.96;1849351;77;21002;-77
2022/05/02 11:22:33;;;;;;;5.75;1.87;;;;;;;23.87;21.81;100780.44;1855683;77;26754;-78
2022/05/02 11:25:20;;;;;;;3.43;1.50;;;;;;;23.72;22.48;100777.58;1855219;77;21242;-77
2022/05/02 11:28:41;;;;;;;3.73;1.60;;;;;;;23.64;22.29;100777.33;1855161;77;21919;-79
2022/05/02 11:31:27;;;;;;;3.20;1.77;;;;;;;23.67;22.42;100773.13;1821977;78;20944;-78
2022/05/02 11:34:19;;;;;;;3.43;1.80;;;;;;;23.63;21.79;100770.29;1855107;77;21042;-77
2022/05/02 11:36:58;;;;;;;3.70;1.80;;;;;;;23.58;22.15;100764.25;1820584;77;21054;-82
2022/05/02 11:39:47;;;;;;;3.30;1.73;;;;;;;23.56;22.31;100761.88;1827171;78;21064;-76
2022/05/02 11:42:18;;;;;;;2.57;1.70;;;;;;;23.52;22.44;100764.25;1858388;77;21755;-77
2022/05/02 11:44:59;;;;;;;3.72;1.75;;;;;;;23.41;22.41;100755.72;1821817;77;20915;-77
2022/05/02 11:47:34;;;;;;;3.33;1.50;;;;;;;23.33;22.43;100757.42;1825725;77;20991;-78
2022/05/02 11:50:06;;;;;;;4.03;1.70;;;;;;;23.34;22.61;100741.29;1855053;77;21050;-78
2022/05/02 11:52:36;;;;;;;3.90;1.80;;;;;;;23.40;22.77;100745.39;1854891;77;21416;-77
2022/05/02 11:55:05;;;;;;;2.90;1.53;;;;;;;23.55;23.14;100743.13;1854447;77;21514;-79
2022/05/02 11:57:52;;;;;;;4.83;1.87;;;;;;;23.74;22.73;100741.23;1855674;77;20975;-78
2022/05/02 12:00:19;;;;;;;2.47;1.60;;;;;;;23.84;22.17;100736.10;1794156;78;21089;-79
2022/05/02 12:02:56;;;;;;;3.20;1.90;;;;;;;23.95;22.33;100724.15;1822003;78;21047;-77
2022/05/02 12:05:41;;;;;;;3.47;1.80;;;;;;;24.03;22.50;100727.34;1825160;78;21502;-77
2022/05/02 12:08:10;;;;;;;2.67;1.50;;;;;;;24.17;22.28;100726.17;1823281;78;21644;-76
2022/05/02 12:10:46;;;;;;;3.00;1.63;;;;;;;24.29;21.80;100720.12;1805823;78;20904;-76
2022/05/02 12:13:19;;;;;;;3.10;1.70;;;;;;;24.40;21.57;100712.80;1818074;78;20998;-76
2022/05/02 12:15:59;;;;;;;3.87;1.53;;;;;;;24.46;21.77;100714.97;1844156;76;21371;-77
2022/05/02 12:18:50;;;;;;;3.30;1.80;;;;;;;24.51;21.47;100712.00;1808650;78;21486;-81
2022/05/02 12:21:45;;;;;;;5.57;2.00;;;;;;;24.48;21.64;100710.52;1824368;78;21608;-77
2022/05/02 12:24:13;;;;;;;3.47;1.77;;;;;;;24.36;21.16;100709.18;1831745;78;21066;-78
2022/05/02 12:26:51;;;;;;;3.33;1.60;;;;;;;24.19;21.24;100705.59;1831039;78;20947;-77
2022/05/02 12:29:24;;;;;;;2.53;1.70;;;;;;;24.04;21.73;100707.09;1831824;78;21481;-78
2022/05/02 12:31:59;;;;;;;4.17;1.80;;;;;;;23.85;21.75;100699.50;1831668;76;21056;-78
2022/05/02 12:34:58;;;;;;;3.63;1.87;;;;;;;23.69;22.12;100706.00;1832110;78;21790;-79
2022/05/02 12:37:23;;;;;;;5.13;1.90;;;;;;;23.53;22.16;100699.06;1820498;78;20915;-78
2022/05/02 12:39:51;;;;;;;2.93;1.80;;;;;;;23.34;22.00;100700.98;1831440;76;21176;-78
2022/05/02 12:42:20;;;;;;;4.00;1.80;;;;;;;23.13;22.17;100693.70;1831799;78;20992;-77